Time;durP1;ratioP1;P1;durP2;ratioP2;P2;SDS_P1;SDS_P2;PMS_P1;PMS_P2;Temp;Humidity;BMP_temperature;BMP_pressure;BME280_temperature;BME280_humidity;BME280_pressure;Samples;Min_cycle;Max_cycle;Signal;HPM_P1;HPM_P2
2022/09/09 00:00:49;;;;;;;2.42;0.60;;;;;;;13.51;100.00;99477.59;6150690;22;20002;-88
2022/09/09 00:03:19;;;;;;;2.53;0.70;;;;;;;13.75;100.00;99468.16;6252796;22;20028;-84
2022/09/09 00:06:04;;;;;;;1.98;0.70;;;;;;;13.97;100.00;99464.53;6150580;22;19997;-84
2022/09/09 00:08:55;;;;;;;1.38;0.50;;;;;;;14.07;100.00;99474.81;6252056;22;20010;-85
2022/09/09 00:11:28;;;;;;;1.90;0.50;;;;;;;14.00;99.82;99473.94;6150255;23;20001;-85
2022/09/09 00:13:58;;;;;;;1.02;0.40;;;;;;;14.03;99.04;99465.78;6249615;22;20012;-86
2022/09/09 00:16:31;;;;;;;1.73;0.52;;;;;;;13.81;100.00;99469.41;6151276;22;20073;-87
2022/09/09 00:19:20;;;;;;;2.92;0.40;;;;;;;13.76;100.00;99467.78;6150529;22;19998;-86
2022/09/09 00:22:14;;;;;;;1.48;0.50;;;;;;;13.63;100.00;99471.13;6150536;22;20472;-85
2022/09/09 00:24:45;;;;;;;1.95;0.50;;;;;;;13.64;100.00;99469.97;6150307;22;20025;-87
2022/09/09 00:27:23;;;;;;;1.02;0.50;;;;;;;13.55;100.00;99471.03;6150329;23;20005;-87
2022/09/09 00:30:00;;;;;;;1.35;0.60;;;;;;;13.54;100.00;99466.72;6150457;22;20084;-86
2022/09/09 00:32:29;;;;;;;1.60;0.65;;;;;;;13.51;100.00;99474.88;6150183;22;20307;-86
2022/09/09 00:35:15;;;;;;;2.70;0.90;;;;;;;13.48;100.00;99484.59;6150376;22;20139;-86
2022/09/09 00:37:42;;;;;;;0.98;0.40;;;;;;;13.61;100.00;99474.25;6150465;22;19997;-85
2022/09/09 00:40:37;;;;;;;0.75;0.40;;;;;;;13.58;100.00;99472.22;6150129;22;20572;-85
2022/09/09 00:43:27;;;;;;;2.45;0.60;;;;;;;13.57;100.00;99458.91;6253000;22;20012;-85
2022/09/09 00:46:18;;;;;;;1.90;0.63;;;;;;;13.51;100.00;99467.44;6150183;22;20423;-85
2022/09/09 00:48:58;;;;;;;3.47;0.75;;;;;;;13.50;100.00;99465.09;6252800;22;20010;-86
2022/09/09 00:51:43;;;;;;;2.05;0.85;;;;;;;13.50;100.00;99465.88;6149861;23;20418;-86
2022/09/09 00:54:41;;;;;;;1.23;0.50;;;;;;;13.52;100.00;99471.75;6150580;22;20017;-88
2022/09/09 00:57:28;;;;;;;2.22;0.75;;;;;;;13.57;100.00;99469.84;6252748;22;20009;-84
2022/09/09 01:00:31;;;;;;;1.83;0.73;;;;;;;13.69;100.00;99472.38;6150438;23;20002;-87
2022/09/09 01:03:10;;;;;;;1.77;0.70;;;;;;;13.66;100.00;99464.91;6149923;22;20054;-84
2022/09/09 01:05:44;;;;;;;2.10;0.95;;;;;;;13.69;100.00;99473.16;6149611;23;20008;-81
2022/09/09 01:08:16;;;;;;;2.33;0.95;;;;;;;13.75;100.00;99471.66;6149629;22;20380;-81
2022/09/09 01:10:50;;;;;;;4.07;1.02;;;;;;;13.79;100.00;99472.53;6149932;22;20001;-79
2022/09/09 01:13:24;;;;;;;2.40;0.90;;;;;;;13.81;100.00;99472.16;6150289;22;20012;-80
2022/09/09 01:15:53;;;;;;;2.72;0.80;;;;;;;13.83;100.00;99467.88;6150287;23;19998;-81
2022/09/09 01:18:21;;;;;;;5.28;0.90;;;;;;;13.87;100.00;99459.72;6152613;22;20056;-80
2022/09/09 01:21:19;;;;;;;3.75;0.73;;;;;;;13.87;100.00;99462.44;6152276;22;20055;-80
2022/09/09 01:23:44;;;;;;;;;;;;;;;13.83;100.00;99467.88;6152331;22;20005;-79
2022/09/09 01:26:28;;;;;;;1.80;0.80;;;;;;;13.84;100.00;99457.72;6151001;23;19938;-81
2022/09/09 01:28:55;;;;;;;2.58;0.93;;;;;;;13.84;100.00;99446.78;6151336;22;20253;-80
2022/09/09 01:31:44;;;;;;;3.47;0.88;;;;;;;13.87;100.00;99453.44;6254249;22;20040;-80
2022/09/09 01:34:12;;;;;;;1.88;0.70;;;;;;;13.87;100.00;99454.22;6166501;22;20085;-81
2022/09/09 01:36:48;;;;;;;1.90;0.70;;;;;;;13.94;100.00;99461.72;6253656;22;20005;-81
2022/09/09 01:39:13;;;;;;;3.92;1.17;;;;;;;13.96;99.90;99459.44;6151133;22;19997;-81
2022/09/09 01:41:39;;;;;;;1.73;0.77;;;;;;;14.00;99.94;99455.56;6253712;22;20008;-81
2022/09/09 01:44:05;;;;;;;;;;;;;;;14.05;99.85;99460.72;6254371;22;20033;-81
2022/09/09 01:46:31;;;;;;;1.85;0.80;;;;;;;14.09;99.51;99458.00;6253703;22;19904;-81
2022/09/09 01:48:58;;;;;;;6.22;1.30;;;;;;;14.10;99.72;99452.16;6151157;22;20040;-80
2022/09/09 01:51:24;;;;;;;3.45;1.20;;;;;;;14.09;99.59;99450.56;6252858;22;20465;-81
2022/09/09 01:53:49;;;;;;;3.13;1.00;;;;;;;14.09;99.84;99447.84;6151635;22;20001;-81
2022/09/09 01:56:39;;;;;;;3.55;0.98;;;;;;;14.07;99.94;99441.16;6151078;23;20006;-80
2022/09/09 01:59:33;;;;;;;2.65;1.00;;;;;;;14.09;99.87;99447.06;6166534;22;20005;-81
2022/09/09 02:02:18;;;;;;;2.15;0.80;;;;;;;14.11;99.44;99445.53;6151261;23;20037;-80
2022/09/09 02:04:54;;;;;;;2.17;0.90;;;;;;;14.20;98.95;99447.97;6151412;22;20009;-80
2022/09/09 02:07:37;;;;;;;2.30;0.93;;;;;;;14.12;98.84;99449.06;6253884;22;20013;-80
2022/09/09 02:10:35;;;;;;;3.10;0.95;;;;;;;14.11;98.28;99451.03;6161048;22;20010;-81
2022/09/09 02:13:03;;;;;;;;;;;;;;;14.09;97.79;99453.31;6152042;22;20024;-80
2022/09/09 02:15:55;;;;;;;2.45;0.90;;;;;;;14.05;97.63;99449.75;6254168;22;19950;-81
2022/09/09 02:18:34;;;;;;;1.77;0.70;;;;;;;14.13;97.43;99454.16;6151000;22;20475;-79
2022/09/09 02:21:02;;;;;;;2.13;0.68;;;;;;;14.07;97.58;99444.69;6150931;22;20009;-80
2022/09/09 02:23:28;;;;;;;2.08;0.70;;;;;;;14.17;96.81;99447.94;6150944;22;20006;-79
2022/09/09 02:25:55;;;;;;;;;;;;;;;14.11;97.57;99452.97;6150953;22;20109;-79
2022/09/09 02:28:23;;;;;;;3.58;1.30;;;;;;;14.17;97.85;99451.47;6150668;23;20278;-80
2022/09/09 02:30:54;;;;;;;2.67;1.27;;;;;;;14.10;98.69;99449.41;6151075;22;20001;-80
2022/09/09 02:33:27;;;;;;;3.83;0.90;;;;;;;14.14;98.78;99455.75;6150736;23;20010;-81
2022/09/09 02:35:56;;;;;;;2.08;0.88;;;;;;;14.18;98.50;99449.50;6253178;22;20013;-82
2022/09/09 02:38:26;;;;;;;2.22;0.90;;;;;;;14.24;98.93;99443.31;6150677;22;19997;-80
2022/09/09 02:40:52;;;;;;;1.90;0.82;;;;;;;14.29;98.34;99453.94;6150968;22;20001;-81
2022/09/09 02:43:18;;;;;;;2.83;1.00;;;;;;;14.28;98.51;99457.06;6253385;22;20294;-81
2022/09/09 02:46:02;;;;;;;2.78;1.15;;;;;;;14.32;98.59;99457.88;6253832;22;20013;-82
2022/09/09 02:48:44;;;;;;;3.30;0.95;;;;;;;14.38;98.41;99453.63;6253611;22;20048;-81
2022/09/09 02:51:18;;;;;;;3.33;1.00;;;;;;;14.52;98.20;99453.00;6150559;22;20138;-82
2022/09/09 02:54:08;;;;;;;3.95;1.20;;;;;;;14.49;97.88;99451.81;6150554;23;19997;-81
2022/09/09 02:56:41;;;;;;;4.30;1.58;;;;;;;14.55;97.68;99444.81;6150995;23;20088;-82
2022/09/09 02:59:07;;;;;;;4.65;1.10;;;;;;;14.54;98.04;99453.44;6253486;22;20004;-82
2022/09/09 03:01:32;;;;;;;4.47;1.25;;;;;;;14.53;98.10;99443.63;6150698;23;20080;-82
2022/09/09 03:03:57;;;;;;;3.22;1.23;;;;;;;14.49;98.20;99443.59;6156995;22;20016;-83
2022/09/09 03:06:23;;;;;;;;;;;;;;;14.51;98.28;99440.50;6151197;23;20006;-82
2022/09/09 03:08:49;;;;;;;5.10;1.90;;;;;;;14.55;97.00;99442.09;6151724;23;19948;-82
2022/09/09 03:11:15;;;;;;;3.67;1.20;;;;;;;14.57;97.20;99436.22;6150502;23;20236;-82
2022/09/09 03:13:41;;;;;;;3.10;1.23;;;;;;;14.53;97.14;99438.94;6150836;22;20001;-84
2022/09/09 03:16:06;;;;;;;;;;;;;;;14.51;97.41;99441.28;6151110;23;20084;-82
2022/09/09 03:18:32;;;;;;;2.00;0.93;;;;;;;14.52;97.36;99431.88;6150689;23;20244;-83
2022/09/09 03:20:57;;;;;;;;;;;;;;;14.50;97.28;99436.97;6254053;22;20054;-81
2022/09/09 03:23:23;;;;;;;5.25;1.10;;;;;;;14.53;97.09;99441.69;6150432;23;19905;-83
2022/09/09 03:25:50;;;;;;;;;;;;;;;14.53;97.17;99427.97;6253360;22;20029;-81
2022/09/09 03:28:15;;;;;;;3.92;0.93;;;;;;;14.50;96.77;99431.47;6252460;22;19983;-84
2022/09/09 03:30:41;;;;;;;3.13;1.00;;;;;;;14.50;97.28;99434.22;6253074;22;20037;-85
2022/09/09 03:33:06;;;;;;;3.42;1.20;;;;;;;14.49;96.42;99432.66;6150853;23;20066;-84
2022/09/09 03:35:31;;;;;;;;;;;;;;;14.48;96.62;99433.81;6151255;23;20426;-81
2022/09/09 03:37:57;;;;;;;3.37;0.90;;;;;;;14.47;96.41;99428.72;6150177;22;19926;-83
2022/09/09 03:40:22;;;;;;;4.43;1.10;;;;;;;14.51;95.78;99427.56;6252145;22;20273;-85
2022/09/09 03:42:48;;;;;;;4.00;1.27;;;;;;;14.46;96.21;99430.66;6150482;22;20229;-84
2022/09/09 03:45:13;;;;;;;;;;;;;;;14.44;95.92;99427.50;6150937;22;20409;-80
2022/09/09 03:47:39;;;;;;;2.83;0.98;;;;;;;14.44;96.17;99436.53;6150397;22;19912;-82
2022/09/09 03:50:08;;;;;;;;;;;;;;;14.44;96.35;99432.97;6151271;22;20418;-81
2022/09/09 03:52:36;;;;;;;2.67;1.10;;;;;;;14.48;95.97;99435.78;6228231;22;19916;-82
2022/09/09 03:55:03;;;;;;;3.05;0.90;;;;;;;14.44;96.28;99424.75;6150716;23;20006;-81
2022/09/09 03:57:34;;;;;;;2.67;1.15;;;;;;;14.41;96.35;99428.22;6150976;22;20061;-82
2022/09/09 04:00:00;;;;;;;2.80;0.98;;;;;;;14.45;95.96;99434.56;6252529;22;20063;-82
2022/09/09 04:02:27;;;;;;;2.97;0.95;;;;;;;14.44;96.16;99430.22;6253259;22;20001;-84
2022/09/09 04:04:52;;;;;;;2.55;0.82;;;;;;;14.46;95.65;99432.63;6227512;22;20033;-83
2022/09/09 04:07:18;;;;;;;2.53;0.90;;;;;;;14.46;95.98;99433.41;6150472;22;20001;-87
2022/09/09 04:09:43;;;;;;;;;;;;;;;14.47;95.88;99431.47;6151685;22;19998;-83
2022/09/09 04:12:13;;;;;;;2.63;0.90;;;;;;;14.47;95.89;99439.66;6150677;23;20215;-84
2022/09/09 04:14:40;;;;;;;2.58;0.88;;;;;;;14.48;95.69;99425.59;6150877;22;20001;-83
2022/09/09 04:17:06;;;;;;;2.58;0.80;;;;;;;14.43;95.78;99421.22;6150149;23;20005;-82
2022/09/09 04:19:32;;;;;;;4.03;0.85;;;;;;;14.44;95.69;99428.31;6253649;22;20005;-83
2022/09/09 04:21:57;;;;;;;;;;;;;;;14.43;95.95;99425.88;6151197;22;20002;-81
2022/09/09 04:24:22;;;;;;;3.58;0.93;;;;;;;14.41;95.66;99430.97;6150700;22;19911;-83
2022/09/09 04:26:48;;;;;;;;;;;;;;;14.37;96.01;99428.19;6253123;22;19998;-80
2022/09/09 04:29:13;;;;;;;2.25;0.80;;;;;;;14.39;96.10;99428.59;6149989;23;19970;-84
2022/09/09 04:31:41;;;;;;;;;;;;;;;14.38;95.79;99431.72;6150827;23;20356;-82
2022/09/09 04:34:08;;;;;;;5.22;0.90;;;;;;;14.36;95.97;99436.78;6150104;23;19908;-83
2022/09/09 04:36:33;;;;;;;3.10;1.08;;;;;;;14.33;96.49;99437.53;6150233;22;20005;-83
2022/09/09 04:38:58;;;;;;;3.58;1.30;;;;;;;14.36;96.06;99445.00;6150300;22;20044;-83
2022/09/09 04:41:24;;;;;;;;;;;;;;;14.35;95.95;99438.75;6150012;23;20002;-80
2022/09/09 04:43:50;;;;;;;4.43;1.40;;;;;;;14.42;95.43;99436.06;6252496;22;20218;-82
2022/09/09 04:46:17;;;;;;;3.00;1.00;;;;;;;14.47;95.38;99436.94;6149878;22;20576;-81
2022/09/09 04:48:42;;;;;;;2.70;0.90;;;;;;;14.51;95.13;99438.53;6149823;22;20006;-83
2022/09/09 04:51:12;;;;;;;4.05;1.08;;;;;;;14.53;94.69;99438.16;6150537;22;20387;-81
2022/09/09 04:53:37;;;;;;;5.05;1.15;;;;;;;14.57;94.90;99436.22;6151038;23;20378;-81
2022/09/09 04:56:11;;;;;;;2.50;1.02;;;;;;;14.68;94.25;99435.16;6253915;22;20005;-82
2022/09/09 04:58:38;;;;;;;4.50;1.08;;;;;;;14.61;94.82;99426.91;6151220;22;20001;-82
2022/09/09 05:01:09;;;;;;;5.15;1.67;;;;;;;14.58;94.87;99429.59;6253609;22;20448;-82
2022/09/09 05:03:35;;;;;;;3.92;1.10;;;;;;;14.64;94.46;99436.31;6254676;22;20002;-82
2022/09/09 05:06:12;;;;;;;5.63;1.30;;;;;;;14.60;94.90;99439.00;6150575;22;20001;-82
2022/09/09 05:08:41;;;;;;;3.78;1.50;;;;;;;14.61;94.90;99434.28;6150265;22;20059;-85
2022/09/09 05:11:27;;;;;;;5.13;1.27;;;;;;;14.64;95.02;99433.56;6152603;22;20032;-84
2022/09/09 05:13:54;;;;;;;2.58;0.98;;;;;;;14.68;94.39;99435.16;6150186;22;20006;-82
2022/09/09 05:16:20;;;;;;;3.45;0.90;;;;;;;14.69;94.51;99442.22;6151183;22;20434;-82
2022/09/09 05:18:46;;;;;;;4.13;1.30;;;;;;;14.69;94.42;99431.25;6252620;22;20012;-82
2022/09/09 05:21:13;;;;;;;;;;;;;;;14.86;94.41;99431.78;6254181;22;20001;-81
2022/09/09 05:23:38;;;;;;;4.05;1.10;;;;;;;14.84;93.43;99431.38;6150732;22;19904;-82
2022/09/09 05:26:04;;;;;;;;;;;;;;;14.87;93.35;99441.56;6151197;22;20017;-83
2022/09/09 05:28:30;;;;;;;3.67;1.15;;;;;;;14.85;93.08;99430.22;6253531;22;19915;-82
2022/09/09 05:30:58;;;;;;;;;;;;;;;14.87;92.84;99430.63;6228769;22;20350;-80
2022/09/09 05:33:25;;;;;;;6.18;1.23;;;;;;;14.89;93.11;99414.56;6253768;22;19905;-83
2022/09/09 05:36:07;;;;;;;4.43;0.93;;;;;;;14.92;92.96;99439.25;6151000;22;20092;-81
2022/09/09 05:38:34;;;;;;;2.92;1.05;;;;;;;14.99;92.58;99427.59;6152130;22;20004;-84
2022/09/09 05:41:00;;;;;;;5.35;1.38;;;;;;;15.07;92.40;99425.66;6253791;22;20064;-82
2022/09/09 05:43:26;;;;;;;;;;;;;;;15.04;92.12;99429.97;6151608;23;20002;-81
2022/09/09 05:46:06;;;;;;;3.28;1.08;;;;;;;15.06;92.01;99422.13;6254086;22;19905;-84
2022/09/09 05:48:34;;;;;;;2.55;0.95;;;;;;;15.09;92.02;99415.88;6151601;22;20005;-83
2022/09/09 05:51:00;;;;;;;6.10;1.42;;;;;;;15.10;92.07;99420.19;6151575;22;20005;-84
2022/09/09 05:53:27;;;;;;;3.00;1.25;;;;;;;15.11;91.82;99421.78;6253725;22;20013;-83
2022/09/09 05:56:03;;;;;;;6.53;1.30;;;;;;;15.13;92.28;99422.19;6151076;22;20005;-83
2022/09/09 05:58:33;;;;;;;4.47;1.10;;;;;;;15.11;92.10;99424.50;6244912;22;20044;-82
2022/09/09 06:01:02;;;;;;;2.78;1.17;;;;;;;15.09;92.01;99421.38;6165535;22;20080;-83
2022/09/09 06:03:28;;;;;;;5.20;1.02;;;;;;;15.13;91.85;99427.69;6150526;23;20005;-83
2022/09/09 06:06:01;;;;;;;5.18;0.95;;;;;;;15.23;92.17;99421.47;6150780;22;20323;-82
2022/09/09 06:08:27;;;;;;;3.78;1.20;;;;;;;15.27;91.31;99429.72;6148981;22;20005;-83
2022/09/09 06:10:53;;;;;;;10.60;2.38;;;;;;;15.21;91.28;99434.78;6151120;22;20006;-82
2022/09/09 06:13:18;;;;;;;5.47;1.10;;;;;;;15.21;91.61;99443.00;6150331;22;20066;-81
2022/09/09 06:15:51;;;;;;;;;;;;;;;15.26;91.77;99436.38;6151390;22;20096;-81
2022/09/09 06:18:18;;;;;;;4.20;0.90;;;;;;;15.35;90.69;99434.88;6150784;23;19913;-81
2022/09/09 06:20:54;;;;;;;3.38;1.08;;;;;;;15.27;91.25;99429.72;6151217;23;20378;-80
2022/09/09 06:23:20;;;;;;;3.88;1.30;;;;;;;15.30;91.52;99434.47;6149022;23;19997;-81
2022/09/09 06:25:45;;;;;;;;;;;;;;;15.35;90.57;99434.88;6228260;22;20134;-78
2022/09/09 06:28:11;;;;;;;2.80;1.17;;;;;;;15.49;90.46;99433.38;6150041;23;19908;-82
2022/09/09 06:30:40;;;;;;;;;;;;;;;15.41;90.86;99435.28;6150178;23;20010;-79
2022/09/09 06:33:05;;;;;;;3.20;1.00;;;;;;;15.38;90.56;99438.00;6150018;23;19904;-81
2022/09/09 06:35:31;;;;;;;;;;;;;;;15.50;90.24;99438.47;6252495;22;20009;-78
2022/09/09 06:37:58;;;;;;;6.45;2.38;;;;;;;15.63;89.54;99437.03;6150068;23;19908;-79
2022/09/09 06:40:25;;;;;;;3.70;1.08;;;;;;;15.70;88.79;99435.47;6150319;22;20047;-79
2022/09/09 06:42:51;;;;;;;4.63;1.30;;;;;;;15.60;89.67;99439.72;6150657;22;20005;-84
2022/09/09 06:45:17;;;;;;;;;;;;;;;15.70;89.02;99447.22;6253310;22;20063;-78
2022/09/09 06:47:44;;;;;;;3.20;0.90;;;;;;;15.75;88.64;99446.84;6150240;23;19932;-79
2022/09/09 06:50:10;;;;;;;4.68;1.10;;;;;;;15.81;88.07;99444.53;6150200;22;20001;-80
2022/09/09 06:52:36;;;;;;;2.22;0.80;;;;;;;15.79;88.21;99438.63;6150991;22;20013;-80
2022/09/09 06:55:02;;;;;;;;;;;;;;;15.70;88.29;99444.50;6151934;22;20072;-81
2022/09/09 06:57:29;;;;;;;4.05;1.75;;;;;;;15.70;88.10;99447.22;6150630;23;20005;-82
2022/09/09 06:59:54;;;;;;;3.80;0.88;;;;;;;15.75;88.11;99435.88;6151016;22;20009;-83
2022/09/09 07:02:19;;;;;;;;;;;;;;;15.76;88.47;99445.69;6151929;22;20322;-80
2022/09/09 07:04:46;;;;;;;6.22;1.17;;;;;;;15.92;87.44;99446.13;6253838;22;19905;-83
2022/09/09 07:07:15;;;;;;;6.13;1.50;;;;;;;16.05;87.14;99445.81;6150959;22;20032;-82
2022/09/09 07:09:40;;;;;;;3.15;0.90;;;;;;;16.12;86.97;99452.09;6150432;23;20342;-81
2022/09/09 07:12:06;;;;;;;;;;;;;;;16.02;86.41;99441.09;6151287;23;20005;-81
2022/09/09 07:14:32;;;;;;;1.60;0.75;;;;;;;16.02;86.58;99450.09;6149582;23;19974;-82
2022/09/09 07:17:00;;;;;;;3.70;0.98;;;;;;;16.06;86.34;99463.84;6151121;22;20015;-81
2022/09/09 07:19:26;;;;;;;3.05;0.95;;;;;;;15.99;86.63;99461.88;6252946;22;20080;-81
2022/09/09 07:21:55;;;;;;;1.73;0.65;;;;;;;16.16;85.85;99455.66;6150493;23;19997;-82
2022/09/09 07:24:20;;;;;;;4.60;0.88;;;;;;;16.24;85.93;99456.44;6253334;22;20481;-81
2022/09/09 07:26:46;;;;;;;;;;;;;;;16.26;85.70;99454.09;6254017;22;20215;-81
2022/09/09 07:29:13;;;;;;;2.63;0.77;;;;;;;16.39;85.26;99460.81;6149462;23;19913;-81
2022/09/09 07:31:39;;;;;;;3.38;0.93;;;;;;;16.63;83.55;99459.28;6152126;22;19998;-83
2022/09/09 07:34:05;;;;;;;;;;;;;;;16.63;83.73;99462.03;6152335;23;20005;-82
2022/09/09 07:36:36;;;;;;;4.00;0.93;;;;;;;16.76;82.98;99467.94;6150619;23;19905;-81
2022/09/09 07:39:04;;;;;;;5.32;1.08;;;;;;;16.82;82.70;99464.44;6150558;22;20350;-81
2022/09/09 07:41:33;;;;;;;3.35;1.15;;;;;;;16.95;82.32;99464.81;6251803;22;20029;-80
2022/09/09 07:44:00;;;;;;;2.13;0.90;;;;;;;16.97;81.00;99456.97;6150408;22;20008;-81
2022/09/09 07:46:25;;;;;;;;;;;;;;;17.10;79.96;99460.09;6150890;23;20021;-80
2022/09/09 07:48:53;;;;;;;4.65;0.80;;;;;;;17.27;79.21;99461.25;6254266;22;19931;-80
2022/09/09 07:51:22;;;;;;;2.83;0.88;;;;;;;17.32;79.39;99469.13;6151060;22;20001;-81
2022/09/09 07:53:50;;;;;;;2.90;0.57;;;;;;;17.55;78.93;99468.69;6150498;23;20005;-80
2022/09/09 07:56:18;;;;;;;2.30;1.00;;;;;;;17.55;79.03;99471.44;6253286;22;20009;-82
2022/09/09 07:58:48;;;;;;;2.95;0.85;;;;;;;17.39;77.97;99477.34;6153572;22;20056;-80
2022/09/09 08:01:20;;;;;;;1.75;0.63;;;;;;;17.28;78.58;99484.84;6228281;22;20009;-80
2022/09/09 08:03:52;;;;;;;2.78;0.63;;;;;;;17.31;78.63;99484.06;6253090;22;20009;-84
2022/09/09 08:06:18;;;;;;;3.58;0.90;;;;;;;17.30;78.76;99476.97;6149519;22;20006;-80
2022/09/09 08:08:43;;;;;;;;;;;;;;;17.25;78.38;99482.88;6150896;22;20005;-82
2022/09/09 08:11:14;;;;;;;3.67;0.90;;;;;;;17.19;78.71;99482.50;6150560;23;19970;-83
2022/09/09 08:13:41;;;;;;;2.97;1.00;;;;;;;17.33;78.95;99485.25;6164958;22;20010;-84
2022/09/09 08:16:14;;;;;;;4.55;0.80;;;;;;;17.35;78.33;99480.13;6150587;22;20009;-80
2022/09/09 08:18:40;;;;;;;4.07;1.13;;;;;;;17.29;78.65;99481.69;6254219;22;20537;-82
2022/09/09 08:21:17;;;;;;;;;;;;;;;17.17;78.93;99484.06;6152678;22;20013;-81
2022/09/09 08:23:45;;;;;;;4.25;1.00;;;;;;;17.21;78.91;99482.09;6149330;23;19967;-84
2022/09/09 08:26:16;;;;;;;1.83;0.95;;;;;;;17.36;78.40;99484.44;6151897;22;20014;-81
2022/09/09 08:28:42;;;;;;;2.38;0.95;;;;;;;17.52;77.67;99489.53;6152516;22;20007;-82
2022/09/09 08:31:17;;;;;;;2.83;0.95;;;;;;;17.56;77.24;99475.75;6152575;22;20013;-83
2022/09/09 08:33:45;;;;;;;2.63;0.80;;;;;;;17.62;76.88;99482.41;6152471;22;20334;-82
2022/09/09 08:36:15;;;;;;;5.80;1.02;;;;;;;17.64;76.50;99493.84;6152257;23;20009;-82
2022/09/09 08:38:41;;;;;;;2.00;0.70;;;;;;;17.58;76.80;99490.69;6152499;22;19994;-81
2022/09/09 08:41:31;;;;;;;4.47;0.95;;;;;;;17.51;76.57;99487.97;6152246;22;20016;-82
2022/09/09 08:44:22;;;;;;;2.15;1.10;;;;;;;17.60;75.04;99482.81;6151638;23;20017;-82
2022/09/09 08:47:16;;;;;;;1.67;0.73;;;;;;;17.45;74.40;99489.53;6151251;22;20508;-87
2022/09/09 08:50:05;;;;;;;4.10;1.05;;;;;;;17.52;72.85;99481.28;6153178;23;19998;-86
2022/09/09 08:52:44;;;;;;;3.60;0.80;;;;;;;17.51;73.04;99492.69;6256826;22;20009;-84
2022/09/09 08:55:48;;;;;;;2.20;0.90;;;;;;;17.51;73.11;99495.44;6152405;22;20005;-82
2022/09/09 08:58:19;;;;;;;3.00;1.00;;;;;;;17.53;72.42;99491.09;6153162;23;20061;-83
2022/09/09 09:00:51;;;;;;;5.00;1.00;;;;;;;17.65;71.31;99478.88;6153554;22;20005;-82
2022/09/09 09:03:34;;;;;;;3.50;0.80;;;;;;;17.77;72.65;99485.94;6154676;23;20009;-81
2022/09/09 09:06:18;;;;;;;1.55;0.68;;;;;;;17.92;71.10;99477.22;6254609;22;20492;-82
2022/09/09 09:09:17;;;;;;;2.00;0.98;;;;;;;18.00;69.51;99489.03;6151362;22;20347;-82
2022/09/09 09:11:50;;;;;;;3.88;0.98;;;;;;;18.11;69.92;99486.22;6150966;23;20017;-84
2022/09/09 09:14:24;;;;;;;2.45;0.65;;;;;;;18.23;68.50;99478.28;6151233;22;20005;-82
2022/09/09 09:16:57;;;;;;;4.82;1.05;;;;;;;18.25;67.85;99492.44;6151305;22;20005;-84
2022/09/09 09:19:25;;;;;;;2.30;0.68;;;;;;;18.29;66.82;99493.19;6253914;22;20005;-84
2022/09/09 09:22:15;;;;;;;3.13;0.60;;;;;;;18.28;65.78;99479.81;6151036;22;20095;-84
2022/09/09 09:24:59;;;;;;;2.30;0.98;;;;;;;18.12;66.58;99493.28;6151118;22;20012;-84
2022/09/09 09:27:35;;;;;;;2.83;0.65;;;;;;;18.13;66.19;99492.09;6254421;22;20005;-82
2022/09/09 09:30:13;;;;;;;2.67;0.85;;;;;;;18.13;67.00;99497.59;6151628;23;20033;-83
2022/09/09 09:32:45;;;;;;;4.15;0.98;;;;;;;18.16;66.42;99497.63;6154362;22;20017;-82
2022/09/09 09:35:13;;;;;;;4.32;1.20;;;;;;;18.28;66.75;99490.84;6254276;22;20084;-84
2022/09/09 09:37:40;;;;;;;4.40;1.05;;;;;;;18.30;66.11;99494.78;6152553;22;20006;-87
2022/09/09 09:40:11;;;;;;;2.47;0.70;;;;;;;18.22;65.61;99490.50;6151423;22;20002;-86
2022/09/09 09:42:38;;;;;;;4.95;1.10;;;;;;;18.24;66.16;99492.84;6254423;22;20087;-85
2022/09/09 09:45:35;;;;;;;2.45;0.90;;;;;;;18.25;65.87;99497.94;6151591;22;20012;-86
2022/09/09 09:48:06;;;;;;;0.80;0.52;;;;;;;18.27;65.50;99495.56;6151115;22;20019;-85
2022/09/09 09:50:32;;;;;;;2.55;0.90;;;;;;;18.20;65.46;99503.09;6151790;22;19998;-84
2022/09/09 09:53:01;;;;;;;3.03;0.82;;;;;;;18.28;65.80;99501.88;6253793;22;20016;-85
2022/09/09 09:55:30;;;;;;;4.15;1.17;;;;;;;18.28;65.54;99499.91;6151282;22;20114;-85
2022/09/09 09:58:14;;;;;;;2.83;0.80;;;;;;;18.21;65.00;99497.19;6252904;22;20028;-86
2022/09/09 10:00:51;;;;;;;3.60;0.98;;;;;;;18.06;65.88;99494.91;6255637;22;20392;-87
2022/09/09 10:03:37;;;;;;;1.10;0.65;;;;;;;17.95;65.33;99501.22;6256208;22;19997;-84
2022/09/09 10:06:03;;;;;;;1.63;0.60;;;;;;;17.91;66.04;99503.22;6156232;22;20001;-85
2022/09/09 10:08:28;;;;;;;2.92;0.70;;;;;;;17.91;66.50;99499.66;6259810;22;20013;-83
2022/09/09 10:11:17;;;;;;;3.40;0.90;;;;;;;17.81;65.91;99495.78;6262202;22;20016;-84
2022/09/09 10:14:10;;;;;;;3.30;0.70;;;;;;;17.86;66.13;99505.59;6154405;23;20005;-86
2022/09/09 10:16:52;;;;;;;1.92;0.70;;;;;;;17.87;65.19;99494.19;6154397;23;20415;-83
2022/09/09 10:19:25;;;;;;;2.25;0.80;;;;;;;18.09;64.72;99492.13;6158813;22;20084;-86
2022/09/09 10:21:55;;;;;;;2.40;0.77;;;;;;;18.40;64.27;99493.16;6152791;22;20335;-84
2022/09/09 10:24:27;;;;;;;3.05;0.82;;;;;;;18.38;62.27;99481.75;6150794;23;20027;-83
2022/09/09 10:27:05;;;;;;;4.07;0.63;;;;;;;18.34;62.48;99495.56;6151292;23;20017;-85
2022/09/09 10:30:01;;;;;;;2.10;0.90;;;;;;;18.38;61.17;99503.81;6151425;22;20030;-86
2022/09/09 10:32:38;;;;;;;4.57;0.68;;;;;;;18.31;61.10;99496.38;6151381;22;20044;-86
2022/09/09 10:35:53;;;;;;;2.03;0.55;;;;;;;18.37;61.24;99487.66;6151693;22;20005;-82
2022/09/09 10:38:29;;;;;;;3.70;0.70;;;;;;;18.34;60.82;99484.53;6152377;22;20051;-82
2022/09/09 10:41:00;;;;;;;2.37;0.60;;;;;;;18.38;61.01;99478.22;6253642;22;20006;-82
2022/09/09 10:43:39;;;;;;;2.50;0.70;;;;;;;18.46;60.86;99472.22;6150874;22;20248;-87
2022/09/09 10:46:32;;;;;;;1.88;0.60;;;;;;;18.50;60.87;99475.00;6150999;23;20001;-84
2022/09/09 10:49:06;;;;;;;1.35;0.63;;;;;;;18.63;60.24;99479.63;6150113;23;20085;-85
2022/09/09 10:51:50;;;;;;;4.35;1.00;;;;;;;18.67;61.12;99481.63;6151027;22;20013;-82
2022/09/09 10:54:45;;;;;;;5.43;1.25;;;;;;;18.58;61.07;99476.50;6151029;22;20013;-83
2022/09/09 10:57:20;;;;;;;2.40;0.77;;;;;;;18.51;60.74;99479.31;6151601;22;20005;-83
2022/09/09 10:59:51;;;;;;;2.55;0.68;;;;;;;18.39;61.14;99483.31;6151074;22;20002;-82
2022/09/09 11:02:30;;;;;;;2.30;0.70;;;;;;;18.28;62.04;99469.59;6150921;23;20442;-82
2022/09/09 11:05:01;;;;;;;3.25;0.80;;;;;;;18.34;61.52;99486.50;6151554;22;20009;-83
2022/09/09 11:07:52;;;;;;;1.25;0.60;;;;;;;18.19;61.60;99477.53;6150816;23;20051;-86
2022/09/09 11:10:28;;;;;;;1.80;0.70;;;;;;;17.97;63.05;99467.75;6151017;22;20081;-85
2022/09/09 11:12:59;;;;;;;2.05;0.60;;;;;;;17.94;63.10;99474.06;6228016;23;20426;-85
2022/09/09 11:15:35;;;;;;;1.52;0.60;;;;;;;17.97;63.52;99474.09;6151578;22;20422;-84
2022/09/09 11:18:04;;;;;;;3.20;0.80;;;;;;;18.14;63.36;99469.69;6229428;22;20423;-83
2022/09/09 11:20:29;;;;;;;2.83;0.98;;;;;;;18.07;64.21;99475.22;6150937;22;20017;-85
2022/09/09 11:23:13;;;;;;;4.07;1.13;;;;;;;18.18;63.08;99470.44;6151099;22;20351;-83
2022/09/09 11:25:44;;;;;;;2.97;0.85;;;;;;;18.40;63.05;99465.59;6152530;22;20017;-85
2022/09/09 11:28:35;;;;;;;0.57;0.40;;;;;;;18.56;62.53;99471.41;6253137;22;20442;-83
2022/09/09 11:31:36;;;;;;;2.42;1.10;;;;;;;18.75;61.08;99458.28;6233954;22;20036;-85
2022/09/09 11:34:15;;;;;;;1.05;0.50;;;;;;;18.86;61.04;99464.53;6253551;22;20012;-86
2022/09/09 11:37:04;;;;;;;2.70;0.68;;;;;;;19.02;60.66;99456.50;6253514;22;20030;-82
2022/09/09 11:39:30;;;;;;;1.98;0.60;;;;;;;19.08;61.16;99459.59;6150893;22;20084;-84
2022/09/09 11:42:07;;;;;;;0.80;0.30;;;;;;;19.06;61.15;99462.00;6150838;23;20001;-82
2022/09/09 11:44:33;;;;;;;2.85;0.85;;;;;;;19.05;61.39;99465.94;6227971;22;20010;-86
2022/09/09 11:46:59;;;;;;;2.72;0.90;;;;;;;19.06;61.23;99457.25;6253205;22;20006;-83
2022/09/09 11:49:41;;;;;;;6.30;1.85;;;;;;;18.95;61.59;99462.06;6150999;22;20002;-86
2022/09/09 11:52:20;;;;;;;5.28;2.42;;;;;;;18.79;62.34;99457.06;6253994;22;20119;-85
2022/09/09 11:54:50;;;;;;;3.63;1.35;;;;;;;18.79;63.01;99462.59;6151262;22;20102;-87
2022/09/09 11:57:35;;;;;;;5.20;1.30;;;;;;;18.15;71.84;99474.00;6151363;22;20419;-85
2022/09/09 12:00:01;;;;;;;2.42;0.80;;;;;;;17.42;75.80;99474.59;6150708;22;20009;-83
2022/09/09 12:02:30;;;;;;;2.33;0.82;;;;;;;17.14;76.89;99480.16;6253119;22;20063;-83
2022/09/09 12:05:09;;;;;;;1.90;0.75;;;;;;;17.09;78.24;99477.78;6253631;22;20381;-86